Prior Lake, Minnesota
Current Conditions -  °F | °C
As of 10:25 AM on Monday 26 Jan 2015 (Local Time) from KFCM Reporting Station
Broken Clouds Broken Clouds  
Wind Chill: 31°   Ceiling: 1500
Heat Index: 38°   Visibility: 10mi
Dew Point: 31°   Wind: 10mph
Humidity: 76%   Direction: 290°WNW
Pressure: 29.71"   Gusts: NA
Location:  44.71°N, 93.42°W
Report Text: KFCM 261625Z 29009KT 10SM BKN015 03/M01 A2971 RMK AO2 T00331006
Loading
Personal Weather Stations






























Interactive Weather Map New forecast layout! Learn more

10-Day Weather Forecast

Advertisements
Track Severe Weather on mobile